sensor_id;sensor_type;location;lat;lon;timestamp;P1;durP1;ratioP1;P2;durP2;ratioP2
46675;SDS011;32412;51.478;5.694;2023-04-15T00:01:25;12.18;;;6.20;;
46675;SDS011;32412;51.478;5.694;2023-04-15T00:03:51;13.38;;;5.65;;
46675;SDS011;32412;51.478;5.694;2023-04-15T00:06:18;13.43;;;5.90;;
46675;SDS011;32412;51.478;5.694;2023-04-15T00:08:47;10.68;;;6.30;;
46675;SDS011;32412;51.478;5.694;2023-04-15T00:11:14;15.35;;;6.45;;
46675;SDS011;32412;51.478;5.694;2023-04-15T00:13:41;13.88;;;6.00;;
46675;SDS011;32412;51.478;5.694;2023-04-15T00:16:07;14.00;;;7.18;;
46675;SDS011;32412;51.478;5.694;2023-04-15T00:18:34;12.13;;;6.70;;
46675;SDS011;32412;51.478;5.694;2023-04-15T00:21:00;16.20;;;6.63;;
46675;SDS011;32412;51.478;5.694;2023-04-15T00:23:26;13.02;;;6.32;;
46675;SDS011;32412;51.478;5.694;2023-04-15T00:25:52;14.52;;;6.22;;
46675;SDS011;32412;51.478;5.694;2023-04-15T00:28:18;14.15;;;7.18;;
46675;SDS011;32412;51.478;5.694;2023-04-15T00:30:44;16.17;;;6.28;;
46675;SDS011;32412;51.478;5.694;2023-04-15T00:33:10;21.75;;;7.03;;
46675;SDS011;32412;51.478;5.694;2023-04-15T00:35:36;13.80;;;6.78;;
46675;SDS011;32412;51.478;5.694;2023-04-15T00:38:03;10.13;;;6.32;;
46675;SDS011;32412;51.478;5.694;2023-04-15T00:40:30;13.75;;;6.80;;
46675;SDS011;32412;51.478;5.694;2023-04-15T00:42:55;12.90;;;6.47;;
46675;SDS011;32412;51.478;5.694;2023-04-15T00:45:21;16.27;;;6.78;;
46675;SDS011;32412;51.478;5.694;2023-04-15T00:47:47;10.60;;;6.05;;
46675;SDS011;32412;51.478;5.694;2023-04-15T00:50:13;12.13;;;6.82;;
46675;SDS011;32412;51.478;5.694;2023-04-15T00:52:39;15.15;;;7.13;;
46675;SDS011;32412;51.478;5.694;2023-04-15T00:55:05;12.65;;;6.78;;
46675;SDS011;32412;51.478;5.694;2023-04-15T00:57:31;18.27;;;6.70;;
46675;SDS011;32412;51.478;5.694;2023-04-15T00:59:58;13.95;;;6.78;;
46675;SDS011;32412;51.478;5.694;2023-04-15T01:02:25;14.70;;;6.82;;
46675;SDS011;32412;51.478;5.694;2023-04-15T01:04:51;11.95;;;6.22;;
46675;SDS011;32412;51.478;5.694;2023-04-15T01:07:17;10.13;;;6.60;;
46675;SDS011;32412;51.478;5.694;2023-04-15T01:09:42;14.23;;;6.75;;
46675;SDS011;32412;51.478;5.694;2023-04-15T01:12:11;12.60;;;6.68;;
46675;SDS011;32412;51.478;5.694;2023-04-15T01:14:38;11.63;;;6.82;;
46675;SDS011;32412;51.478;5.694;2023-04-15T01:17:04;15.13;;;7.70;;
46675;SDS011;32412;51.478;5.694;2023-04-15T01:19:30;10.48;;;5.97;;
46675;SDS011;32412;51.478;5.694;2023-04-15T01:21:55;13.35;;;7.35;;
46675;SDS011;32412;51.478;5.694;2023-04-15T01:24:21;15.25;;;6.80;;
46675;SDS011;32412;51.478;5.694;2023-04-15T01:26:50;11.55;;;6.10;;
46675;SDS011;32412;51.478;5.694;2023-04-15T01:29:15;10.40;;;6.38;;
46675;SDS011;32412;51.478;5.694;2023-04-15T01:31:52;14.40;;;7.28;;
46675;SDS011;32412;51.478;5.694;2023-04-15T01:34:19;15.25;;;7.00;;
46675;SDS011;32412;51.478;5.694;2023-04-15T01:36:45;17.15;;;7.85;;
46675;SDS011;32412;51.478;5.694;2023-04-15T01:39:11;14.82;;;7.55;;
46675;SDS011;32412;51.478;5.694;2023-04-15T01:41:37;15.68;;;7.20;;
46675;SDS011;32412;51.478;5.694;2023-04-15T01:44:04;16.20;;;7.13;;
46675;SDS011;32412;51.478;5.694;2023-04-15T01:46:31;9.68;;;7.05;;
46675;SDS011;32412;51.478;5.694;2023-04-15T01:48:56;11.52;;;6.70;;
46675;SDS011;32412;51.478;5.694;2023-04-15T01:51:22;14.88;;;7.40;;
46675;SDS011;32412;51.478;5.694;2023-04-15T01:53:48;16.02;;;7.15;;
46675;SDS011;32412;51.478;5.694;2023-04-15T01:56:14;14.55;;;7.43;;
46675;SDS011;32412;51.478;5.694;2023-04-15T01:58:40;10.75;;;7.15;;
46675;SDS011;32412;51.478;5.694;2023-04-15T02:01:06;12.55;;;7.28;;
46675;SDS011;32412;51.478;5.694;2023-04-15T02:03:32;13.30;;;7.65;;
46675;SDS011;32412;51.478;5.694;2023-04-15T02:05:57;15.70;;;7.75;;
46675;SDS011;32412;51.478;5.694;2023-04-15T02:08:23;15.00;;;7.82;;
46675;SDS011;32412;51.478;5.694;2023-04-15T02:10:51;10.63;;;7.72;;
46675;SDS011;32412;51.478;5.694;2023-04-15T02:13:17;15.10;;;8.27;;
46675;SDS011;32412;51.478;5.694;2023-04-15T02:15:47;11.93;;;8.20;;
46675;SDS011;32412;51.478;5.694;2023-04-15T02:18:14;13.20;;;8.02;;
46675;SDS011;32412;51.478;5.694;2023-04-15T02:20:40;12.75;;;7.22;;
46675;SDS011;32412;51.478;5.694;2023-04-15T02:23:08;14.50;;;8.23;;
46675;SDS011;32412;51.478;5.694;2023-04-15T02:25:40;12.48;;;7.35;;
46675;SDS011;32412;51.478;5.694;2023-04-15T02:28:06;13.88;;;8.00;;
46675;SDS011;32412;51.478;5.694;2023-04-15T02:30:36;15.95;;;8.40;;
46675;SDS011;32412;51.478;5.694;2023-04-15T02:33:02;11.75;;;7.80;;
46675;SDS011;32412;51.478;5.694;2023-04-15T02:35:28;14.65;;;8.45;;
46675;SDS011;32412;51.478;5.694;2023-04-15T02:37:54;13.68;;;7.97;;
46675;SDS011;32412;51.478;5.694;2023-04-15T02:40:20;16.50;;;9.20;;
46675;SDS011;32412;51.478;5.694;2023-04-15T02:42:52;15.90;;;9.13;;
46675;SDS011;32412;51.478;5.694;2023-04-15T02:45:18;12.93;;;8.88;;
46675;SDS011;32412;51.478;5.694;2023-04-15T02:47:48;13.55;;;8.15;;
46675;SDS011;32412;51.478;5.694;2023-04-15T02:50:14;14.60;;;8.30;;
46675;SDS011;32412;51.478;5.694;2023-04-15T02:52:43;13.35;;;7.90;;
46675;SDS011;32412;51.478;5.694;2023-04-15T02:55:14;12.63;;;7.68;;
46675;SDS011;32412;51.478;5.694;2023-04-15T02:57:42;12.05;;;7.80;;
46675;SDS011;32412;51.478;5.694;2023-04-15T03:00:08;14.23;;;8.57;;
46675;SDS011;32412;51.478;5.694;2023-04-15T03:02:37;12.20;;;7.97;;
46675;SDS011;32412;51.478;5.694;2023-04-15T03:05:10;16.27;;;7.97;;
46675;SDS011;32412;51.478;5.694;2023-04-15T03:07:39;13.45;;;8.13;;
46675;SDS011;32412;51.478;5.694;2023-04-15T03:10:11;12.55;;;7.82;;
46675;SDS011;32412;51.478;5.694;2023-04-15T03:12:37;15.95;;;8.43;;
46675;SDS011;32412;51.478;5.694;2023-04-15T03:15:06;15.25;;;8.10;;
46675;SDS011;32412;51.478;5.694;2023-04-15T03:17:33;12.82;;;8.15;;
46675;SDS011;32412;51.478;5.694;2023-04-15T03:20:03;12.15;;;8.05;;
46675;SDS011;32412;51.478;5.694;2023-04-15T03:22:35;19.05;;;8.50;;
46675;SDS011;32412;51.478;5.694;2023-04-15T03:25:08;14.95;;;8.07;;
46675;SDS011;32412;51.478;5.694;2023-04-15T03:27:37;16.30;;;8.07;;
46675;SDS011;32412;51.478;5.694;2023-04-15T03:30:06;15.02;;;9.20;;
46675;SDS011;32412;51.478;5.694;2023-04-15T03:32:35;14.85;;;8.68;;
46675;SDS011;32412;51.478;5.694;2023-04-15T03:35:01;14.20;;;8.75;;
46675;SDS011;32412;51.478;5.694;2023-04-15T03:37:35;10.70;;;7.78;;
46675;SDS011;32412;51.478;5.694;2023-04-15T03:40:01;15.70;;;8.60;;
46675;SDS011;32412;51.478;5.694;2023-04-15T03:42:30;13.88;;;8.68;;
46675;SDS011;32412;51.478;5.694;2023-04-15T03:45:00;14.85;;;8.73;;
46675;SDS011;32412;51.478;5.694;2023-04-15T03:47:31;13.07;;;8.52;;
46675;SDS011;32412;51.478;5.694;2023-04-15T03:49:57;16.20;;;8.52;;
46675;SDS011;32412;51.478;5.694;2023-04-15T03:52:23;14.60;;;8.90;;
46675;SDS011;32412;51.478;5.694;2023-04-15T03:54:49;17.27;;;8.50;;
46675;SDS011;32412;51.478;5.694;2023-04-15T03:57:15;17.23;;;9.30;;
46675;SDS011;32412;51.478;5.694;2023-04-15T03:59:43;13.55;;;8.82;;
46675;SDS011;32412;51.478;5.694;2023-04-15T04:02:22;14.60;;;9.27;;
46675;SDS011;32412;51.478;5.694;2023-04-15T04:04:53;18.00;;;8.45;;
46675;SDS011;32412;51.478;5.694;2023-04-15T04:07:22;14.13;;;8.57;;
46675;SDS011;32412;51.478;5.694;2023-04-15T04:09:49;15.68;;;9.43;;
46675;SDS011;32412;51.478;5.694;2023-04-15T04:12:18;15.07;;;9.07;;
46675;SDS011;32412;51.478;5.694;2023-04-15T04:14:46;19.55;;;8.98;;
46675;SDS011;32412;51.478;5.694;2023-04-15T04:20:39;16.08;;;9.13;;
46675;SDS011;32412;51.478;5.694;2023-04-15T04:23:14;14.63;;;8.70;;
46675;SDS011;32412;51.478;5.694;2023-04-15T04:25:49;13.93;;;8.52;;
46675;SDS011;32412;51.478;5.694;2023-04-15T04:31:54;14.90;;;8.93;;
46675;SDS011;32412;51.478;5.694;2023-04-15T04:41:18;17.58;;;9.45;;
46675;SDS011;32412;51.478;5.694;2023-04-15T04:47:35;15.23;;;9.20;;
46675;SDS011;32412;51.478;5.694;2023-04-15T04:56:44;21.25;;;10.07;;
46675;SDS011;32412;51.478;5.694;2023-04-15T05:02:56;16.23;;;9.93;;
46675;SDS011;32412;51.478;5.694;2023-04-15T05:05:24;15.93;;;10.10;;
46675;SDS011;32412;51.478;5.694;2023-04-15T05:07:53;18.67;;;9.07;;
46675;SDS011;32412;51.478;5.694;2023-04-15T05:11:02;15.50;;;9.50;;
46675;SDS011;32412;51.478;5.694;2023-04-15T05:13:28;15.82;;;9.45;;
46675;SDS011;32412;51.478;5.694;2023-04-15T05:16:03;18.75;;;9.90;;
46675;SDS011;32412;51.478;5.694;2023-04-15T05:18:29;16.55;;;10.15;;
46675;SDS011;32412;51.478;5.694;2023-04-15T05:20:56;18.20;;;10.20;;
46675;SDS011;32412;51.478;5.694;2023-04-15T05:23:25;18.73;;;10.70;;
46675;SDS011;32412;51.478;5.694;2023-04-15T05:25:51;16.50;;;10.55;;
46675;SDS011;32412;51.478;5.694;2023-04-15T05:28:18;16.75;;;10.10;;
46675;SDS011;32412;51.478;5.694;2023-04-15T05:30:48;17.77;;;10.38;;
46675;SDS011;32412;51.478;5.694;2023-04-15T05:33:15;19.42;;;10.55;;
46675;SDS011;32412;51.478;5.694;2023-04-15T05:35:45;15.55;;;10.30;;
46675;SDS011;32412;51.478;5.694;2023-04-15T05:38:12;16.40;;;9.90;;
46675;SDS011;32412;51.478;5.694;2023-04-15T06:37:50;19.00;;;11.13;;
46675;SDS011;32412;51.478;5.694;2023-04-15T06:40:16;19.63;;;11.00;;
46675;SDS011;32412;51.478;5.694;2023-04-15T06:42:42;18.08;;;10.65;;
46675;SDS011;32412;51.478;5.694;2023-04-15T06:45:08;18.38;;;10.63;;
46675;SDS011;32412;51.478;5.694;2023-04-15T06:47:36;16.52;;;10.73;;
46675;SDS011;32412;51.478;5.694;2023-04-15T06:50:04;17.75;;;10.93;;
46675;SDS011;32412;51.478;5.694;2023-04-15T06:52:30;21.55;;;10.93;;
46675;SDS011;32412;51.478;5.694;2023-04-15T06:54:56;15.32;;;9.80;;
46675;SDS011;32412;51.478;5.694;2023-04-15T06:57:23;17.73;;;9.70;;
46675;SDS011;32412;51.478;5.694;2023-04-15T06:59:49;15.20;;;10.23;;
46675;SDS011;32412;51.478;5.694;2023-04-15T07:02:15;14.65;;;10.35;;
46675;SDS011;32412;51.478;5.694;2023-04-15T07:04:41;16.08;;;10.10;;
46675;SDS011;32412;51.478;5.694;2023-04-15T07:07:06;15.32;;;9.52;;
46675;SDS011;32412;51.478;5.694;2023-04-15T07:09:33;16.25;;;9.90;;
46675;SDS011;32412;51.478;5.694;2023-04-15T07:11:59;15.35;;;9.80;;
46675;SDS011;32412;51.478;5.694;2023-04-15T07:14:24;17.10;;;10.13;;
46675;SDS011;32412;51.478;5.694;2023-04-15T07:16:50;14.57;;;9.75;;
46675;SDS011;32412;51.478;5.694;2023-04-15T07:19:16;15.68;;;10.13;;
46675;SDS011;32412;51.478;5.694;2023-04-15T07:21:44;15.13;;;9.23;;
46675;SDS011;32412;51.478;5.694;2023-04-15T07:24:09;12.95;;;9.40;;
46675;SDS011;32412;51.478;5.694;2023-04-15T07:26:36;13.90;;;8.65;;
46675;SDS011;32412;51.478;5.694;2023-04-15T07:29:05;13.85;;;8.93;;
46675;SDS011;32412;51.478;5.694;2023-04-15T07:31:31;14.45;;;10.20;;
46675;SDS011;32412;51.478;5.694;2023-04-15T07:33:56;15.13;;;9.38;;
46675;SDS011;32412;51.478;5.694;2023-04-15T07:36:22;14.60;;;9.18;;
46675;SDS011;32412;51.478;5.694;2023-04-15T07:38:48;13.00;;;9.23;;
46675;SDS011;32412;51.478;5.694;2023-04-15T07:41:14;12.93;;;8.73;;
46675;SDS011;32412;51.478;5.694;2023-04-15T07:43:40;16.35;;;8.73;;
46675;SDS011;32412;51.478;5.694;2023-04-15T07:46:06;14.60;;;9.40;;
46675;SDS011;32412;51.478;5.694;2023-04-15T07:48:31;11.70;;;8.73;;
46675;SDS011;32412;51.478;5.694;2023-04-15T07:50:57;12.05;;;8.52;;
46675;SDS011;32412;51.478;5.694;2023-04-15T07:53:23;13.38;;;8.25;;
46675;SDS011;32412;51.478;5.694;2023-04-15T07:58:25;12.23;;;8.32;;
46675;SDS011;32412;51.478;5.694;2023-04-15T08:00:54;12.05;;;8.38;;
46675;SDS011;32412;51.478;5.694;2023-04-15T08:03:22;9.52;;;7.68;;
46675;SDS011;32412;51.478;5.694;2023-04-15T08:08:57;8.18;;;5.22;;
46675;SDS011;32412;51.478;5.694;2023-04-15T08:11:22;8.90;;;5.78;;
46675;SDS011;32412;51.478;5.694;2023-04-15T08:13:57;9.50;;;5.82;;
46675;SDS011;32412;51.478;5.694;2023-04-15T08:19:51;7.25;;;4.40;;
46675;SDS011;32412;51.478;5.694;2023-04-15T08:22:20;7.70;;;5.18;;
46675;SDS011;32412;51.478;5.694;2023-04-15T08:28:10;7.28;;;4.95;;
46675;SDS011;32412;51.478;5.694;2023-04-15T08:30:44;6.78;;;5.03;;
46675;SDS011;32412;51.478;5.694;2023-04-15T08:33:13;6.15;;;5.40;;
46675;SDS011;32412;51.478;5.694;2023-04-15T08:35:58;7.35;;;5.10;;
46675;SDS011;32412;51.478;5.694;2023-04-15T08:38:25;6.88;;;5.22;;
46675;SDS011;32412;51.478;5.694;2023-04-15T08:40:51;9.85;;;5.63;;
46675;SDS011;32412;51.478;5.694;2023-04-15T08:43:22;7.50;;;5.00;;
46675;SDS011;32412;51.478;5.694;2023-04-15T08:45:52;7.20;;;5.65;;
46675;SDS011;32412;51.478;5.694;2023-04-15T08:48:19;7.93;;;5.45;;
46675;SDS011;32412;51.478;5.694;2023-04-15T08:50:49;11.57;;;5.80;;
46675;SDS011;32412;51.478;5.694;2023-04-15T08:53:16;8.65;;;5.03;;
46675;SDS011;32412;51.478;5.694;2023-04-15T08:55:43;6.97;;;5.22;;
46675;SDS011;32412;51.478;5.694;2023-04-15T08:58:10;7.20;;;4.93;;
46675;SDS011;32412;51.478;5.694;2023-04-15T09:00:37;7.57;;;5.30;;
46675;SDS011;32412;51.478;5.694;2023-04-15T09:03:04;9.27;;;5.68;;
46675;SDS011;32412;51.478;5.694;2023-04-15T09:05:37;7.63;;;5.20;;
46675;SDS011;32412;51.478;5.694;2023-04-15T09:08:07;9.80;;;5.28;;
46675;SDS011;32412;51.478;5.694;2023-04-15T09:10:36;8.48;;;5.53;;
46675;SDS011;32412;51.478;5.694;2023-04-15T09:13:06;6.88;;;5.35;;
46675;SDS011;32412;51.478;5.694;2023-04-15T09:15:43;11.00;;;5.55;;
46675;SDS011;32412;51.478;5.694;2023-04-15T09:18:12;8.13;;;5.78;;
46675;SDS011;32412;51.478;5.694;2023-04-15T09:20:51;6.53;;;4.47;;
46675;SDS011;32412;51.478;5.694;2023-04-15T09:23:24;5.80;;;4.00;;
46675;SDS011;32412;51.478;5.694;2023-04-15T09:25:51;7.25;;;3.78;;
46675;SDS011;32412;51.478;5.694;2023-04-15T09:28:22;9.32;;;4.22;;
46675;SDS011;32412;51.478;5.694;2023-04-15T09:30:58;6.53;;;3.53;;
46675;SDS011;32412;51.478;5.694;2023-04-15T09:33:26;5.35;;;4.07;;
46675;SDS011;32412;51.478;5.694;2023-04-15T09:36:00;6.28;;;3.67;;
46675;SDS011;32412;51.478;5.694;2023-04-15T09:38:34;5.18;;;3.60;;
46675;SDS011;32412;51.478;5.694;2023-04-15T09:47:15;5.38;;;3.28;;
46675;SDS011;32412;51.478;5.694;2023-04-15T09:49:56;4.82;;;3.00;;
46675;SDS011;32412;51.478;5.694;2023-04-15T09:52:23;3.67;;;3.33;;
46675;SDS011;32412;51.478;5.694;2023-04-15T09:55:00;4.68;;;3.58;;
46675;SDS011;32412;51.478;5.694;2023-04-15T09:57:35;4.57;;;3.30;;
46675;SDS011;32412;51.478;5.694;2023-04-15T10:00:05;5.82;;;3.42;;
46675;SDS011;32412;51.478;5.694;2023-04-15T10:02:33;3.78;;;3.15;;
46675;SDS011;32412;51.478;5.694;2023-04-15T10:05:01;5.18;;;3.40;;
46675;SDS011;32412;51.478;5.694;2023-04-15T10:13:28;4.55;;;3.33;;
46675;SDS011;32412;51.478;5.694;2023-04-15T10:16:15;3.65;;;2.92;;
46675;SDS011;32412;51.478;5.694;2023-04-15T10:18:47;3.78;;;3.17;;
46675;SDS011;32412;51.478;5.694;2023-04-15T10:23:47;5.55;;;2.92;;
46675;SDS011;32412;51.478;5.694;2023-04-15T10:26:14;2.47;;;2.22;;
46675;SDS011;32412;51.478;5.694;2023-04-15T10:28:41;2.78;;;2.58;;
46675;SDS011;32412;51.478;5.694;2023-04-15T10:31:11;4.57;;;2.50;;
46675;SDS011;32412;51.478;5.694;2023-04-15T10:33:40;3.15;;;2.72;;
46675;SDS011;32412;51.478;5.694;2023-04-15T10:36:07;4.93;;;2.72;;
46675;SDS011;32412;51.478;5.694;2023-04-15T10:41:12;2.90;;;2.60;;
46675;SDS011;32412;51.478;5.694;2023-04-15T10:43:51;3.17;;;2.60;;
46675;SDS011;32412;51.478;5.694;2023-04-15T10:46:21;2.30;;;2.03;;
46675;SDS011;32412;51.478;5.694;2023-04-15T10:48:50;3.03;;;2.60;;
46675;SDS011;32412;51.478;5.694;2023-04-15T10:51:30;2.20;;;2.00;;
46675;SDS011;32412;51.478;5.694;2023-04-15T10:53:59;3.40;;;2.30;;
46675;SDS011;32412;51.478;5.694;2023-04-15T10:56:27;2.83;;;2.20;;
46675;SDS011;32412;51.478;5.694;2023-04-15T10:58:54;3.50;;;2.40;;
46675;SDS011;32412;51.478;5.694;2023-04-15T11:01:23;2.60;;;2.15;;
46675;SDS011;32412;51.478;5.694;2023-04-15T11:04:50;2.28;;;2.08;;
46675;SDS011;32412;51.478;5.694;2023-04-15T11:18:09;3.00;;;2.20;;
46675;SDS011;32412;51.478;5.694;2023-04-15T11:20:36;4.18;;;2.47;;
46675;SDS011;32412;51.478;5.694;2023-04-15T11:23:02;3.13;;;2.55;;
46675;SDS011;32412;51.478;5.694;2023-04-15T11:25:29;2.53;;;2.10;;
46675;SDS011;32412;51.478;5.694;2023-04-15T11:28:00;4.25;;;2.83;;
46675;SDS011;32412;51.478;5.694;2023-04-15T11:30:30;4.65;;;2.50;;
46675;SDS011;32412;51.478;5.694;2023-04-15T11:39:31;3.03;;;2.20;;
46675;SDS011;32412;51.478;5.694;2023-04-15T11:41:57;2.55;;;2.08;;
46675;SDS011;32412;51.478;5.694;2023-04-15T11:44:28;3.55;;;2.70;;
46675;SDS011;32412;51.478;5.694;2023-04-15T11:46:54;2.97;;;2.40;;
46675;SDS011;32412;51.478;5.694;2023-04-15T11:49:32;3.08;;;2.42;;
46675;SDS011;32412;51.478;5.694;2023-04-15T11:52:09;2.85;;;2.30;;
46675;SDS011;32412;51.478;5.694;2023-04-15T11:54:35;2.30;;;2.10;;
46675;SDS011;32412;51.478;5.694;2023-04-15T11:57:03;3.75;;;2.55;;
46675;SDS011;32412;51.478;5.694;2023-04-15T11:59:40;2.80;;;2.20;;
46675;SDS011;32412;51.478;5.694;2023-04-15T12:08:56;6.67;;;2.13;;
46675;SDS011;32412;51.478;5.694;2023-04-15T12:14:28;2.38;;;2.10;;
46675;SDS011;32412;51.478;5.694;2023-04-15T12:16:57;1.90;;;1.73;;
46675;SDS011;32412;51.478;5.694;2023-04-15T12:21:56;1.77;;;1.67;;
46675;SDS011;32412;51.478;5.694;2023-04-15T12:24:25;2.30;;;2.10;;
46675;SDS011;32412;51.478;5.694;2023-04-15T12:26:55;4.13;;;2.00;;
46675;SDS011;32412;51.478;5.694;2023-04-15T12:29:35;3.22;;;1.70;;
46675;SDS011;32412;51.478;5.694;2023-04-15T12:32:15;3.25;;;1.80;;
46675;SDS011;32412;51.478;5.694;2023-04-15T12:34:51;3.30;;;1.60;;
46675;SDS011;32412;51.478;5.694;2023-04-15T12:37:21;3.28;;;2.15;;
46675;SDS011;32412;51.478;5.694;2023-04-15T12:39:50;1.75;;;1.60;;
46675;SDS011;32412;51.478;5.694;2023-04-15T12:42:16;2.15;;;1.95;;
46675;SDS011;32412;51.478;5.694;2023-04-15T12:44:42;3.30;;;2.30;;
46675;SDS011;32412;51.478;5.694;2023-04-15T12:47:14;2.35;;;1.98;;
46675;SDS011;32412;51.478;5.694;2023-04-15T12:49:42;2.20;;;2.00;;
46675;SDS011;32412;51.478;5.694;2023-04-15T12:52:20;2.15;;;1.70;;
46675;SDS011;32412;51.478;5.694;2023-04-15T12:54:46;2.38;;;1.83;;
46675;SDS011;32412;51.478;5.694;2023-04-15T12:57:14;3.22;;;2.00;;
46675;SDS011;32412;51.478;5.694;2023-04-15T12:59:49;1.75;;;1.63;;
46675;SDS011;32412;51.478;5.694;2023-04-15T13:02:15;2.17;;;1.95;;
46675;SDS011;32412;51.478;5.694;2023-04-15T13:04:41;2.00;;;1.90;;
46675;SDS011;32412;51.478;5.694;2023-04-15T13:07:14;4.53;;;2.35;;
46675;SDS011;32412;51.478;5.694;2023-04-15T13:09:40;2.58;;;2.38;;
46675;SDS011;32412;51.478;5.694;2023-04-15T13:12:06;2.08;;;1.88;;
46675;SDS011;32412;51.478;5.694;2023-04-15T13:14:43;2.08;;;1.85;;
46675;SDS011;32412;51.478;5.694;2023-04-15T13:17:19;2.97;;;1.85;;
46675;SDS011;32412;51.478;5.694;2023-04-15T13:26:00;2.13;;;1.75;;
46675;SDS011;32412;51.478;5.694;2023-04-15T13:28:35;2.33;;;1.95;;
46675;SDS011;32412;51.478;5.694;2023-04-15T13:31:01;2.85;;;2.00;;
46675;SDS011;32412;51.478;5.694;2023-04-15T13:33:33;2.40;;;2.00;;
46675;SDS011;32412;51.478;5.694;2023-04-15T13:36:13;2.38;;;1.70;;
46675;SDS011;32412;51.478;5.694;2023-04-15T13:48:15;1.98;;;1.80;;
46675;SDS011;32412;51.478;5.694;2023-04-15T13:54:06;6.70;;;2.45;;
46675;SDS011;32412;51.478;5.694;2023-04-15T13:56:35;1.83;;;1.65;;
46675;SDS011;32412;51.478;5.694;2023-04-15T13:59:01;2.35;;;1.63;;
46675;SDS011;32412;51.478;5.694;2023-04-15T14:01:29;1.80;;;1.65;;
46675;SDS011;32412;51.478;5.694;2023-04-15T14:03:58;2.10;;;2.00;;
46675;SDS011;32412;51.478;5.694;2023-04-15T14:06:25;2.13;;;1.88;;
46675;SDS011;32412;51.478;5.694;2023-04-15T14:08:54;3.42;;;2.10;;
46675;SDS011;32412;51.478;5.694;2023-04-15T14:11:22;1.95;;;1.75;;
46675;SDS011;32412;51.478;5.694;2023-04-15T14:13:48;4.10;;;1.65;;
46675;SDS011;32412;51.478;5.694;2023-04-15T14:16:25;2.03;;;1.58;;
46675;SDS011;32412;51.478;5.694;2023-04-15T14:19:09;2.72;;;1.60;;
46675;SDS011;32412;51.478;5.694;2023-04-15T14:21:35;3.22;;;1.60;;
46675;SDS011;32412;51.478;5.694;2023-04-15T14:24:01;3.90;;;1.30;;
46675;SDS011;32412;51.478;5.694;2023-04-15T14:26:34;1.73;;;1.08;;
46675;SDS011;32412;51.478;5.694;2023-04-15T14:29:07;1.20;;;1.10;;
46675;SDS011;32412;51.478;5.694;2023-04-15T14:31:36;1.98;;;1.23;;
46675;SDS011;32412;51.478;5.694;2023-04-15T14:34:11;1.95;;;1.30;;
46675;SDS011;32412;51.478;5.694;2023-04-15T14:36:37;2.95;;;1.13;;
46675;SDS011;32412;51.478;5.694;2023-04-15T14:39:12;2.30;;;1.75;;
46675;SDS011;32412;51.478;5.694;2023-04-15T14:41:41;2.05;;;0.93;;
46675;SDS011;32412;51.478;5.694;2023-04-15T14:44:07;0.95;;;0.88;;
46675;SDS011;32412;51.478;5.694;2023-04-15T14:46:33;1.88;;;0.88;;
46675;SDS011;32412;51.478;5.694;2023-04-15T14:49:02;1.73;;;0.90;;
46675;SDS011;32412;51.478;5.694;2023-04-15T14:51:34;1.05;;;0.90;;
46675;SDS011;32412;51.478;5.694;2023-04-15T14:54:10;2.35;;;1.08;;
46675;SDS011;32412;51.478;5.694;2023-04-15T14:56:46;3.83;;;1.00;;
46675;SDS011;32412;51.478;5.694;2023-04-15T14:59:21;2.03;;;0.98;;
46675;SDS011;32412;51.478;5.694;2023-04-15T15:01:48;2.08;;;1.00;;
46675;SDS011;32412;51.478;5.694;2023-04-15T15:14:28;1.05;;;0.77;;
46675;SDS011;32412;51.478;5.694;2023-04-15T15:16:56;1.20;;;0.90;;
46675;SDS011;32412;51.478;5.694;2023-04-15T15:19:23;3.10;;;1.20;;
46675;SDS011;32412;51.478;5.694;2023-04-15T15:25:20;2.50;;;1.23;;
46675;SDS011;32412;51.478;5.694;2023-04-15T15:27:46;2.25;;;1.17;;
46675;SDS011;32412;51.478;5.694;2023-04-15T15:30:13;2.60;;;1.50;;
46675;SDS011;32412;51.478;5.694;2023-04-15T15:32:51;2.58;;;1.00;;
46675;SDS011;32412;51.478;5.694;2023-04-15T15:35:17;4.43;;;1.25;;
46675;SDS011;32412;51.478;5.694;2023-04-15T15:37:47;1.50;;;1.20;;
46675;SDS011;32412;51.478;5.694;2023-04-15T15:40:15;1.33;;;0.95;;
46675;SDS011;32412;51.478;5.694;2023-04-15T15:42:41;3.40;;;1.10;;
46675;SDS011;32412;51.478;5.694;2023-04-15T15:45:07;4.53;;;1.25;;
46675;SDS011;32412;51.478;5.694;2023-04-15T15:47:33;2.33;;;1.15;;
46675;SDS011;32412;51.478;5.694;2023-04-15T15:50:01;7.80;;;1.73;;
46675;SDS011;32412;51.478;5.694;2023-04-15T15:52:27;2.65;;;1.00;;
46675;SDS011;32412;51.478;5.694;2023-04-15T15:54:55;2.72;;;1.00;;
46675;SDS011;32412;51.478;5.694;2023-04-15T15:57:20;2.33;;;1.02;;
46675;SDS011;32412;51.478;5.694;2023-04-15T15:59:46;1.42;;;0.90;;
46675;SDS011;32412;51.478;5.694;2023-04-15T16:02:12;1.88;;;1.13;;
46675;SDS011;32412;51.478;5.694;2023-04-15T16:04:38;1.30;;;1.00;;
46675;SDS011;32412;51.478;5.694;2023-04-15T16:07:04;1.20;;;0.88;;
46675;SDS011;32412;51.478;5.694;2023-04-15T16:09:31;2.05;;;1.10;;
46675;SDS011;32412;51.478;5.694;2023-04-15T16:11:56;1.63;;;1.20;;
46675;SDS011;32412;51.478;5.694;2023-04-15T16:14:23;3.83;;;1.58;;
46675;SDS011;32412;51.478;5.694;2023-04-15T16:16:50;3.60;;;0.90;;
46675;SDS011;32412;51.478;5.694;2023-04-15T16:19:19;5.25;;;1.20;;
46675;SDS011;32412;51.478;5.694;2023-04-15T16:21:45;5.65;;;1.20;;
46675;SDS011;32412;51.478;5.694;2023-04-15T16:24:12;1.88;;;1.30;;
46675;SDS011;32412;51.478;5.694;2023-04-15T16:26:39;3.47;;;1.33;;
46675;SDS011;32412;51.478;5.694;2023-04-15T16:29:13;2.08;;;1.35;;
46675;SDS011;32412;51.478;5.694;2023-04-15T16:31:41;2.83;;;1.85;;
46675;SDS011;32412;51.478;5.694;2023-04-15T16:34:07;3.95;;;1.80;;
46675;SDS011;32412;51.478;5.694;2023-04-15T16:36:39;3.90;;;2.10;;
46675;SDS011;32412;51.478;5.694;2023-04-15T16:39:05;4.35;;;1.70;;
46675;SDS011;32412;51.478;5.694;2023-04-15T16:41:32;6.07;;;1.70;;
46675;SDS011;32412;51.478;5.694;2023-04-15T16:44:02;3.63;;;1.98;;
46675;SDS011;32412;51.478;5.694;2023-04-15T16:46:32;6.72;;;2.00;;
46675;SDS011;32412;51.478;5.694;2023-04-15T16:48:58;6.30;;;1.80;;
46675;SDS011;32412;51.478;5.694;2023-04-15T16:51:24;3.50;;;1.60;;
46675;SDS011;32412;51.478;5.694;2023-04-15T16:53:51;2.72;;;1.40;;
46675;SDS011;32412;51.478;5.694;2023-04-15T16:56:17;3.75;;;1.50;;
46675;SDS011;32412;51.478;5.694;2023-04-15T16:58:45;2.85;;;1.30;;
46675;SDS011;32412;51.478;5.694;2023-04-15T17:01:13;5.03;;;1.27;;
46675;SDS011;32412;51.478;5.694;2023-04-15T17:03:39;4.00;;;1.30;;
46675;SDS011;32412;51.478;5.694;2023-04-15T17:06:05;6.40;;;1.85;;
46675;SDS011;32412;51.478;5.694;2023-04-15T17:08:31;6.03;;;1.30;;
46675;SDS011;32412;51.478;5.694;2023-04-15T17:10:56;5.10;;;1.27;;
46675;SDS011;32412;51.478;5.694;2023-04-15T17:13:24;3.17;;;1.10;;
46675;SDS011;32412;51.478;5.694;2023-04-15T17:15:50;3.75;;;1.30;;
46675;SDS011;32412;51.478;5.694;2023-04-15T17:18:16;4.50;;;1.50;;
46675;SDS011;32412;51.478;5.694;2023-04-15T17:20:41;3.65;;;1.15;;
46675;SDS011;32412;51.478;5.694;2023-04-15T17:23:07;3.13;;;0.88;;
46675;SDS011;32412;51.478;5.694;2023-04-15T17:25:33;5.72;;;0.93;;
46675;SDS011;32412;51.478;5.694;2023-04-15T17:27:59;2.50;;;0.90;;
46675;SDS011;32412;51.478;5.694;2023-04-15T17:30:25;2.60;;;0.90;;
46675;SDS011;32412;51.478;5.694;2023-04-15T17:32:51;6.63;;;1.20;;
46675;SDS011;32412;51.478;5.694;2023-04-15T17:35:16;3.58;;;1.02;;
46675;SDS011;32412;51.478;5.694;2023-04-15T17:37:49;4.47;;;1.20;;
46675;SDS011;32412;51.478;5.694;2023-04-15T17:40:15;2.72;;;0.88;;
46675;SDS011;32412;51.478;5.694;2023-04-15T17:42:41;5.35;;;1.10;;
46675;SDS011;32412;51.478;5.694;2023-04-15T17:45:07;4.13;;;1.00;;
46675;SDS011;32412;51.478;5.694;2023-04-15T17:47:33;3.58;;;0.93;;